Time;durP1;ratioP1;P1;durP2;ratioP2;P2;SDS_P1;SDS_P2;PMS_P1;PMS_P2;Temp;Humidity;BMP_temperature;BMP_pressure;BME280_temperature;BME280_humidity;BME280_pressure;Samples;Min_cycle;Max_cycle;Signal;HPM_P1;HPM_P2
2021/03/18 00:01:00;;;;;;;6.07;4.70;;;3.60;99.90;;;;;;5079676;28;20191;-54
2021/03/18 00:03:31;;;;;;;6.88;4.80;;;3.50;99.90;;;;;;5075986;28;20634;-54
2021/03/18 00:05:58;;;;;;;7.78;4.85;;;3.70;99.90;;;;;;5082846;28;20189;-54
2021/03/18 00:08:24;;;;;;;8.27;4.55;;;3.70;99.90;;;;;;5084698;28;20291;-55
2021/03/18 00:10:52;;;;;;;5.20;4.70;;;3.50;99.90;;;;;;5083689;28;20185;-54
2021/03/18 00:13:19;;;;;;;6.22;5.40;;;3.30;99.90;;;;;;5073757;28;20209;-54
2021/03/18 00:15:45;;;;;;;6.03;4.43;;;3.40;99.90;;;;;;5086122;28;20592;-54
2021/03/18 00:18:16;;;;;;;5.15;4.65;;;3.60;99.90;;;;;;5084416;28;20257;-54
2021/03/18 00:20:42;;;;;;;4.97;4.45;;;3.60;99.90;;;;;;5085310;28;20192;-54
2021/03/18 00:23:07;;;;;;;5.43;4.20;;;3.50;99.90;;;;;;5080812;28;20199;-54
2021/03/18 00:25:33;;;;;;;5.73;4.77;;;3.40;99.90;;;;;;5076250;28;20193;-54
2021/03/18 00:27:59;;;;;;;6.13;4.47;;;3.60;99.90;;;;;;5077148;28;20255;-54
2021/03/18 00:30:26;;;;;;;5.82;5.30;;;3.70;99.90;;;;;;5081512;28;20510;-54
2021/03/18 00:32:52;;;;;;;5.80;5.20;;;3.50;99.90;;;;;;5079505;28;20186;-54
2021/03/18 00:35:19;;;;;;;7.63;5.03;;;3.50;99.90;;;;;;5081578;28;20640;-53
2021/03/18 00:37:47;;;;;;;4.10;3.80;;;3.60;99.90;;;;;;5077919;28;20473;-54
2021/03/18 00:40:20;;;;;;;5.75;4.90;;;3.60;99.90;;;;;;5085599;28;20208;-54
2021/03/18 00:43:11;;;;;;;5.32;4.13;;;3.70;99.90;;;;;;5070369;28;20597;-54
2021/03/18 00:45:39;;;;;;;5.22;4.05;;;3.60;99.90;;;;;;5076321;28;20197;-54
2021/03/18 00:48:07;;;;;;;4.60;4.20;;;3.60;99.90;;;;;;5076872;28;20210;-54
2021/03/18 00:50:41;;;;;;;4.00;3.50;;;3.90;99.90;;;;;;5086515;28;20187;-54
2021/03/18 00:53:09;;;;;;;6.13;4.40;;;3.90;99.90;;;;;;5071157;28;20180;-54
2021/03/18 00:55:35;;;;;;;6.88;4.57;;;4.00;99.90;;;;;;5078902;28;20225;-54
2021/03/18 00:58:02;;;;;;;4.40;4.00;;;3.80;99.90;;;;;;5073172;28;20205;-55
2021/03/18 01:00:31;;;;;;;4.25;3.85;;;3.90;99.90;;;;;;5078586;28;20191;-54
2021/03/18 01:02:57;;;;;;;4.40;3.30;;;4.00;99.90;;;;;;5069751;28;20447;-54
2021/03/18 01:05:46;;;;;;;6.20;4.07;;;4.10;99.90;;;;;;5078254;28;20184;-54
2021/03/18 01:08:14;;;;;;;5.88;3.50;;;3.90;99.90;;;;;;5076208;28;20236;-53
2021/03/18 01:11:02;;;;;;;4.72;3.92;;;3.60;99.90;;;;;;5078748;28;20181;-54
2021/03/18 01:13:29;;;;;;;3.50;3.20;;;3.60;99.90;;;;;;5085603;28;20695;-53
2021/03/18 01:16:01;;;;;;;4.85;4.15;;;3.80;99.90;;;;;;5068080;28;20638;-53
2021/03/18 01:18:35;;;;;;;6.05;4.10;;;3.70;99.90;;;;;;5077988;28;20291;-53
2021/03/18 01:21:00;;;;;;;4.30;3.90;;;3.50;99.90;;;;;;5077665;28;20211;-53
2021/03/18 01:23:26;;;;;;;4.63;4.10;;;4.00;99.90;;;;;;5077326;28;20546;-53
2021/03/18 01:25:51;;;;;;;4.80;4.40;;;4.00;99.90;;;;;;5075609;28;20193;-53
2021/03/18 01:28:17;;;;;;;4.00;3.60;;;4.00;99.90;;;;;;5082498;28;20208;-53
2021/03/18 01:30:43;;;;;;;5.50;4.17;;;3.80;99.90;;;;;;5075237;28;20180;-53
2021/03/18 01:33:08;;;;;;;5.57;4.10;;;4.00;99.90;;;;;;5084652;28;20929;-54
2021/03/18 01:35:34;;;;;;;4.77;4.07;;;3.90;99.90;;;;;;5088101;28;20583;-54
2021/03/18 01:38:00;;;;;;;5.55;3.58;;;4.00;99.90;;;;;;5077919;28;20307;-53
2021/03/18 01:40:30;;;;;;;4.57;3.67;;;3.90;99.90;;;;;;5082927;28;20221;-53
2021/03/18 01:42:56;;;;;;;7.03;3.90;;;3.70;99.90;;;;;;5073590;28;20193;-53
2021/03/18 01:45:23;;;;;;;4.32;3.85;;;3.70;99.90;;;;;;5080616;28;20185;-53
2021/03/18 01:47:51;;;;;;;3.92;3.53;;;3.70;99.90;;;;;;5087209;28;20219;-52
2021/03/18 01:50:18;;;;;;;3.63;3.33;;;3.60;99.90;;;;;;5079215;28;20200;-52
2021/03/18 01:52:44;;;;;;;3.97;3.10;;;3.80;99.90;;;;;;5081225;28;20274;-53
2021/03/18 01:55:15;;;;;;;4.40;3.58;;;3.90;99.90;;;;;;5079285;28;20197;-54
2021/03/18 01:57:41;;;;;;;6.28;3.75;;;3.80;99.90;;;;;;5079114;28;20212;-53
2021/03/18 02:00:09;;;;;;;5.07;3.60;;;3.90;99.90;;;;;;5079466;28;20177;-53
2021/03/18 02:02:35;;;;;;;5.10;3.60;;;3.80;99.90;;;;;;5075513;28;20424;-52
2021/03/18 02:05:03;;;;;;;4.40;3.80;;;3.80;99.90;;;;;;5080845;28;20184;-54
2021/03/18 02:07:28;;;;;;;3.65;3.35;;;3.80;99.90;;;;;;5083312;28;20216;-53
2021/03/18 02:09:54;;;;;;;6.10;4.13;;;3.80;99.90;;;;;;5076035;28;20185;-53
2021/03/18 02:12:20;;;;;;;6.30;3.90;;;3.70;99.90;;;;;;5074034;28;20181;-54
2021/03/18 02:14:46;;;;;;;7.30;4.23;;;3.60;99.90;;;;;;5083680;28;20580;-53
2021/03/18 02:17:26;;;;;;;4.18;3.78;;;3.60;99.90;;;;;;5072799;28;20231;-53
2021/03/18 02:20:29;;;;;;;4.25;3.72;;;3.50;99.90;;;;;;5080362;28;20597;-52
2021/03/18 02:23:10;;;;;;;4.30;3.88;;;3.70;99.90;;;;;;5083881;28;20172;-53
2021/03/18 02:25:46;;;;;;;4.75;4.32;;;3.60;99.90;;;;;;5072363;28;20173;-53
2021/03/18 02:28:48;;;;;;;5.68;4.13;;;3.40;99.90;;;;;;5074393;28;20269;-53
2021/03/18 02:31:41;;;;;;;4.30;3.90;;;3.40;99.90;;;;;;5018239;28;20276;-53
2021/03/18 02:34:50;;;;;;;4.65;3.97;;;3.50;99.90;;;;;;5077880;28;20176;-53
2021/03/18 02:37:17;;;;;;;6.05;3.55;;;3.40;99.90;;;;;;5057204;28;20505;-53
2021/03/18 02:39:59;;;;;;;4.72;4.07;;;3.10;99.90;;;;;;5073222;28;20239;-53
2021/03/18 02:42:27;;;;;;;7.78;4.05;;;3.60;99.90;;;;;;5077916;28;20204;-53
2021/03/18 02:44:56;;;;;;;5.55;4.50;;;3.30;99.90;;;;;;5070323;28;20193;-53
2021/03/18 02:47:25;;;;;;;6.15;3.80;;;3.10;99.90;;;;;;5074417;28;20771;-53
2021/03/18 02:49:54;;;;;;;5.93;4.50;;;3.20;99.90;;;;;;5085569;28;20230;-53
2021/03/18 02:52:22;;;;;;;4.97;3.95;;;2.90;99.90;;;;;;5085199;28;20231;-54
2021/03/18 02:54:51;;;;;;;5.15;3.70;;;3.00;99.90;;;;;;5078255;28;20196;-53
2021/03/18 02:57:18;;;;;;;4.28;3.85;;;3.30;99.90;;;;;;5076547;28;20610;-54
2021/03/18 02:59:46;;;;;;;8.18;4.68;;;3.20;99.90;;;;;;5070663;28;20193;-53
2021/03/18 03:02:28;;;;;;;4.15;3.67;;;3.30;99.90;;;;;;5074918;28;20181;-53
2021/03/18 03:04:56;;;;;;;4.50;3.95;;;3.30;99.90;;;;;;5077998;28;20234;-53
2021/03/18 03:07:28;;;;;;;4.43;3.88;;;3.10;99.90;;;;;;5083295;28;20581;-53
2021/03/18 03:09:56;;;;;;;3.92;3.53;;;3.30;99.90;;;;;;5087910;28;20242;-53
2021/03/18 03:12:31;;;;;;;3.97;3.60;;;3.30;99.90;;;;;;5075132;28;20185;-53
2021/03/18 03:14:58;;;;;;;5.72;3.35;;;3.50;99.90;;;;;;5075375;28;20547;-54
2021/03/18 03:17:26;;;;;;;3.95;3.28;;;3.40;99.90;;;;;;5079784;28;20658;-54
2021/03/18 03:19:54;;;;;;;4.03;3.58;;;3.40;99.90;;;;;;5076464;28;20196;-54
2021/03/18 03:22:21;;;;;;;5.35;4.00;;;3.00;99.90;;;;;;5076768;28;20240;-54
2021/03/18 03:24:47;;;;;;;5.88;3.95;;;3.40;99.90;;;;;;5072320;28;20200;-54
2021/03/18 03:27:14;;;;;;;4.88;3.60;;;3.70;99.90;;;;;;5073542;28;20268;-54
2021/03/18 03:29:42;;;;;;;3.97;3.58;;;3.40;99.90;;;;;;5084824;28;20294;-54
2021/03/18 03:32:09;;;;;;;4.78;3.60;;;3.50;99.90;;;;;;5077297;28;20314;-54
2021/03/18 03:34:36;;;;;;;5.75;3.95;;;3.60;99.90;;;;;;5080377;28;20285;-54
2021/03/18 03:37:02;;;;;;;4.60;3.88;;;3.70;99.90;;;;;;5088073;28;20700;-54
2021/03/18 03:39:28;;;;;;;4.93;4.43;;;3.70;99.90;;;;;;5080416;28;20287;-54
2021/03/18 03:41:54;;;;;;;6.90;3.70;;;3.80;99.90;;;;;;5079938;28;20272;-54
2021/03/18 03:44:20;;;;;;;4.53;4.00;;;3.80;99.90;;;;;;5083015;28;20205;-54
2021/03/18 03:46:46;;;;;;;4.32;3.92;;;3.60;99.90;;;;;;5078916;28;20188;-54
2021/03/18 03:49:12;;;;;;;5.05;4.55;;;3.70;99.90;;;;;;5085649;28;20276;-54
2021/03/18 03:51:59;;;;;;;6.80;4.65;;;3.60;99.90;;;;;;5079730;28;20342;-54
2021/03/18 03:54:27;;;;;;;3.78;3.38;;;3.80;99.90;;;;;;5070841;28;20197;-54
2021/03/18 03:57:02;;;;;;;4.18;3.58;;;3.90;99.90;;;;;;5077760;28;20208;-53
2021/03/18 03:59:31;;;;;;;4.38;3.70;;;3.90;99.90;;;;;;5083666;28;20183;-54
2021/03/18 04:01:58;;;;;;;4.28;3.70;;;3.80;99.90;;;;;;5081219;28;20193;-54
2021/03/18 04:04:25;;;;;;;3.70;3.35;;;3.60;99.90;;;;;;5082150;28;20184;-53
2021/03/18 04:07:02;;;;;;;5.40;2.90;;;3.80;99.90;;;;;;5073838;28;20180;-54
2021/03/18 04:09:29;;;;;;;3.45;3.15;;;3.10;99.90;;;;;;5076883;28;20209;-54
2021/03/18 04:11:56;;;;;;;3.42;3.13;;;3.70;99.90;;;;;;5071528;28;20191;-53
2021/03/18 04:14:32;;;;;;;3.20;2.58;;;3.80;99.90;;;;;;5074818;28;20188;-54
2021/03/18 04:17:07;;;;;;;4.07;2.88;;;4.00;99.90;;;;;;5080011;28;20179;-54
2021/03/18 04:19:33;;;;;;;5.40;3.65;;;3.90;99.90;;;;;;5073268;28;20192;-54
2021/03/18 04:22:01;;;;;;;3.85;3.38;;;4.00;99.90;;;;;;5079715;28;20192;-54
2021/03/18 04:24:26;;;;;;;3.20;2.83;;;3.60;99.90;;;;;;5086927;28;20663;-54
2021/03/18 04:26:53;;;;;;;3.60;2.57;;;3.70;99.90;;;;;;5077051;28;20192;-54
2021/03/18 04:29:20;;;;;;;3.90;3.50;;;3.60;99.90;;;;;;5085156;28;20983;-54
2021/03/18 04:31:46;;;;;;;4.63;3.08;;;3.50;99.90;;;;;;5079723;28;20180;-54
2021/03/18 04:34:16;;;;;;;3.80;3.40;;;3.70;99.90;;;;;;5068304;28;20181;-54
2021/03/18 04:36:43;;;;;;;4.95;3.10;;;3.90;99.90;;;;;;5075682;28;20181;-54
2021/03/18 04:39:10;;;;;;;6.03;3.45;;;4.00;99.90;;;;;;5083226;28;20752;-54
2021/03/18 04:41:37;;;;;;;3.10;2.80;;;4.00;99.90;;;;;;5079795;28;20250;-54
2021/03/18 04:44:04;;;;;;;3.33;3.03;;;4.00;99.90;;;;;;5075410;28;20271;-54
2021/03/18 04:46:31;;;;;;;4.60;3.55;;;4.10;99.90;;;;;;5076951;28;20181;-54
2021/03/18 04:48:58;;;;;;;4.07;3.35;;;4.20;99.90;;;;;;5073771;28;20721;-53
2021/03/18 04:51:27;;;;;;;6.57;3.30;;;4.00;99.90;;;;;;5080018;28;20216;-54
2021/03/18 04:53:54;;;;;;;5.32;3.65;;;3.80;99.90;;;;;;5069914;28;20213;-54
2021/03/18 04:56:20;;;;;;;4.57;3.30;;;3.50;99.90;;;;;;5068403;28;20204;-54
2021/03/18 04:58:47;;;;;;;4.75;4.05;;;3.80;99.90;;;;;;5070223;28;20209;-54
2021/03/18 05:01:15;;;;;;;4.28;2.83;;;3.60;99.90;;;;;;5070258;28;20193;-54
2021/03/18 05:03:43;;;;;;;4.63;3.85;;;3.80;99.90;;;;;;5077610;28;20230;-54
2021/03/18 05:06:10;;;;;;;3.60;3.30;;;3.90;99.90;;;;;;5086551;28;20522;-54
2021/03/18 05:08:37;;;;;;;5.90;3.22;;;4.00;99.90;;;;;;5082797;28;20281;-53
2021/03/18 05:11:03;;;;;;;4.00;3.03;;;4.00;99.90;;;;;;5070955;28;20268;-54
2021/03/18 05:13:30;;;;;;;7.00;3.53;;;4.20;99.90;;;;;;5077697;28;20285;-54
2021/03/18 05:15:57;;;;;;;5.63;3.83;;;4.00;99.90;;;;;;5073368;28;20189;-54
2021/03/18 05:18:23;;;;;;;3.45;3.15;;;3.80;99.90;;;;;;5079036;28;20223;-54
2021/03/18 05:20:49;;;;;;;3.58;3.25;;;3.90;99.90;;;;;;5077300;28;20231;-54
2021/03/18 05:23:16;;;;;;;3.80;3.43;;;3.60;99.90;;;;;;5079986;28;20181;-55
2021/03/18 05:25:43;;;;;;;4.50;2.90;;;3.80;99.90;;;;;;5077055;28;20498;-54
2021/03/18 05:28:09;;;;;;;3.10;2.80;;;3.60;99.90;;;;;;5079679;28;21402;-54
2021/03/18 05:30:36;;;;;;;4.13;3.45;;;3.70;99.90;;;;;;5079596;28;20669;-54
2021/03/18 05:33:03;;;;;;;5.18;3.20;;;4.20;99.90;;;;;;5075170;28;20635;-54
2021/03/18 05:35:29;;;;;;;6.35;4.78;;;4.00;99.90;;;;;;5076631;28;20229;-54
2021/03/18 05:37:55;;;;;;;4.65;3.53;;;3.80;99.90;;;;;;5082322;28;20200;-54
2021/03/18 05:40:20;;;;;;;3.97;3.60;;;3.80;99.90;;;;;;5086094;28;20195;-54
2021/03/18 05:42:50;;;;;;;4.78;4.18;;;3.80;99.90;;;;;;5077434;28;20189;-54
2021/03/18 05:45:18;;;;;;;3.28;2.97;;;3.70;99.90;;;;;;5089097;28;20172;-55
2021/03/18 05:47:44;;;;;;;5.70;4.20;;;3.60;99.90;;;;;;5087533;28;20629;-53
2021/03/18 05:50:16;;;;;;;4.00;3.30;;;3.60;99.90;;;;;;5085644;28;20557;-54
2021/03/18 05:52:42;;;;;;;7.53;3.22;;;3.70;99.90;;;;;;5076512;28;20220;-54
2021/03/18 05:55:09;;;;;;;3.85;3.45;;;3.70;99.90;;;;;;5079633;28;20192;-54
2021/03/18 05:57:40;;;;;;;5.03;4.53;;;3.90;99.90;;;;;;5078302;28;20208;-54
2021/03/18 06:00:11;;;;;;;4.50;3.88;;;4.10;99.90;;;;;;5078966;28;20180;-52
2021/03/18 06:02:38;;;;;;;3.92;3.55;;;4.00;99.90;;;;;;5080978;28;20177;-52
2021/03/18 06:05:14;;;;;;;5.15;4.43;;;3.80;99.90;;;;;;5078752;28;20271;-52
2021/03/18 06:07:42;;;;;;;5.35;3.88;;;3.80;99.90;;;;;;5079764;28;20200;-52
2021/03/18 06:10:11;;;;;;;3.92;3.50;;;3.80;99.90;;;;;;5082658;28;20177;-52
2021/03/18 06:12:37;;;;;;;4.97;3.80;;;3.90;99.90;;;;;;5073679;28;20174;-53
2021/03/18 06:15:11;;;;;;;4.90;4.10;;;3.50;99.90;;;;;;5078603;28;20689;-51
2021/03/18 06:17:37;;;;;;;4.35;3.72;;;3.70;99.90;;;;;;5082726;28;20333;-51
2021/03/18 06:20:08;;;;;;;6.00;3.70;;;3.90;99.90;;;;;;5076109;28;20185;-52
2021/03/18 06:22:40;;;;;;;5.32;3.80;;;3.60;99.90;;;;;;5064968;28;20939;-52
2021/03/18 06:25:17;;;;;;;7.85;4.13;;;3.60;99.90;;;;;;5082965;28;20217;-52
2021/03/18 06:27:43;;;;;;;4.47;4.07;;;3.70;99.90;;;;;;5078138;28;20296;-51
2021/03/18 06:30:11;;;;;;;9.20;4.00;;;3.60;99.90;;;;;;5081817;28;20184;-53
2021/03/18 06:32:37;;;;;;;6.13;3.63;;;3.80;99.90;;;;;;5078760;28;20176;-53
2021/03/18 06:35:03;;;;;;;5.43;4.93;;;3.80;99.90;;;;;;5080615;28;20177;-52
2021/03/18 06:37:36;;;;;;;6.93;4.47;;;3.80;99.90;;;;;;5082726;28;20204;-53
2021/03/18 06:40:05;;;;;;;6.75;4.07;;;3.60;99.90;;;;;;5080413;28;20185;-53
2021/03/18 06:42:31;;;;;;;4.50;4.10;;;3.60;99.90;;;;;;5080604;28;20180;-54
2021/03/18 06:45:30;;;;;;;5.68;4.20;;;3.20;99.90;;;;;;5081531;28;20637;-44
2021/03/18 06:48:06;;;;;;;5.22;3.83;;;3.90;99.90;;;;;;5071884;28;20213;-45
2021/03/18 06:50:35;;;;;;;7.68;4.25;;;4.00;99.90;;;;;;5086451;28;20266;-45
2021/03/18 06:53:01;;;;;;;7.45;4.18;;;4.20;99.90;;;;;;5072676;28;20181;-44
2021/03/18 06:55:32;;;;;;;4.43;4.03;;;4.40;99.90;;;;;;5077134;28;20200;-44
2021/03/18 06:58:16;;;;;;;4.82;4.25;;;4.20;99.90;;;;;;5080691;28;20223;-44
2021/03/18 07:00:46;;;;;;;8.85;4.72;;;4.40;99.90;;;;;;5072645;28;20172;-53
2021/03/18 07:03:26;;;;;;;4.30;3.90;;;4.40;99.90;;;;;;5072677;28;20307;-53
2021/03/18 07:05:52;;;;;;;6.20;4.05;;;4.20;99.90;;;;;;5076354;28;20268;-52
2021/03/18 07:08:25;;;;;;;4.33;3.93;;;4.60;99.90;;;;;;5099053;28;20219;-52
2021/03/18 07:10:52;;;;;;;7.57;4.10;;;4.70;99.90;;;;;;5078676;28;20442;-52
2021/03/18 07:13:41;;;;;;;4.15;3.83;;;5.30;99.90;;;;;;5084037;28;20196;-53
2021/03/18 07:16:08;;;;;;;4.93;3.60;;;5.30;99.90;;;;;;5083655;28;20181;-51
2021/03/18 07:18:35;;;;;;;5.10;4.30;;;5.30;99.90;;;;;;5077465;28;20216;-52
2021/03/18 07:21:11;;;;;;;7.15;4.60;;;5.40;99.90;;;;;;5074726;28;20444;-51
2021/03/18 07:23:43;;;;;;;5.82;4.65;;;5.40;99.90;;;;;;5081282;28;20678;-51
2021/03/18 07:26:18;;;;;;;3.90;3.55;;;5.60;98.40;;;;;;5077136;28;20222;-52
2021/03/18 07:28:51;;;;;;;5.15;4.65;;;5.90;97.60;;;;;;5076690;28;20243;-51
2021/03/18 07:31:19;;;;;;;8.35;3.63;;;6.80;97.70;;;;;;5082243;28;20205;-52
2021/03/18 07:33:46;;;;;;;7.00;4.13;;;6.90;96.70;;;;;;5073746;28;20173;-52
2021/03/18 07:36:13;;;;;;;6.18;4.60;;;6.80;96.20;;;;;;5077099;28;20180;-52
2021/03/18 07:38:40;;;;;;;7.82;4.40;;;6.60;95.70;;;;;;5080630;28;20435;-53
2021/03/18 07:41:16;;;;;;;6.38;4.70;;;7.00;96.00;;;;;;5085476;28;20180;-53
2021/03/18 07:43:44;;;;;;;3.90;3.50;;;7.30;95.20;;;;;;5073154;28;20214;-53
2021/03/18 07:46:20;;;;;;;4.97;4.45;;;7.90;94.40;;;;;;5074446;28;20709;-50
2021/03/18 07:48:52;;;;;;;4.45;4.05;;;7.10;93.40;;;;;;5088460;28;20554;-52
2021/03/18 07:51:18;;;;;;;6.40;5.22;;;7.60;93.60;;;;;;5088829;28;20224;-53
2021/03/18 07:53:54;;;;;;;6.38;4.45;;;8.20;93.10;;;;;;5083800;28;20195;-53
2021/03/18 07:56:20;;;;;;;5.30;4.50;;;9.00;91.60;;;;;;5078724;28;20192;-53
2021/03/18 07:58:48;;;;;;;6.15;4.22;;;9.50;90.40;;;;;;5077684;28;20299;-53
2021/03/18 08:01:32;;;;;;;5.57;4.10;;;9.70;88.60;;;;;;5076870;28;20300;-51
2021/03/18 08:04:01;;;;;;;6.15;4.15;;;9.50;87.60;;;;;;5087243;28;20188;-53
2021/03/18 08:06:42;;;;;;;5.38;4.72;;;9.30;87.60;;;;;;5081169;28;20515;-54
2021/03/18 08:09:26;;;;;;;8.88;4.65;;;8.70;88.40;;;;;;5078387;28;20236;-52
2021/03/18 08:11:52;;;;;;;6.05;4.60;;;8.70;89.00;;;;;;5082511;28;20211;-51
2021/03/18 08:14:23;;;;;;;6.68;4.50;;;8.50;90.10;;;;;;5082749;28;20783;-52
2021/03/18 08:16:49;;;;;;;5.97;5.00;;;7.70;90.60;;;;;;5079841;28;20193;-54
2021/03/18 08:19:18;;;;;;;5.85;4.25;;;7.40;92.60;;;;;;5079835;28;20283;-53
2021/03/18 08:21:51;;;;;;;9.02;5.18;;;7.30;92.50;;;;;;5077902;28;20354;-53
2021/03/18 08:24:17;;;;;;;6.53;4.95;;;7.60;91.90;;;;;;5078050;28;20253;-51
2021/03/18 08:26:47;;;;;;;10.98;4.80;;;7.50;91.20;;;;;;5075006;28;20272;-52
2021/03/18 08:29:16;;;;;;;7.30;5.25;;;7.70;91.10;;;;;;5075259;28;20215;-52
2021/03/18 08:31:55;;;;;;;5.28;4.78;;;7.40;91.10;;;;;;5080175;28;20299;-52
2021/03/18 08:34:46;;;;;;;5.50;5.00;;;7.30;91.50;;;;;;5077768;28;20602;-52
2021/03/18 08:37:13;;;;;;;6.30;5.35;;;7.10;91.80;;;;;;5072039;28;20189;-53
2021/03/18 08:39:47;;;;;;;8.25;5.45;;;6.80;92.50;;;;;;5079694;28;20187;-52
2021/03/18 08:42:28;;;;;;;8.50;5.35;;;6.50;93.20;;;;;;5077022;28;20184;-56
2021/03/18 08:44:59;;;;;;;6.97;5.47;;;6.80;92.50;;;;;;5074245;28;20173;-54
2021/03/18 08:47:45;;;;;;;10.70;4.85;;;6.60;92.00;;;;;;5069927;28;20212;-53
2021/03/18 08:50:32;;;;;;;10.95;6.10;;;6.90;92.60;;;;;;5079031;28;20189;-53
2021/03/18 08:52:59;;;;;;;6.57;5.85;;;7.30;91.10;;;;;;5074316;28;20263;-53
2021/03/18 08:55:37;;;;;;;7.13;5.15;;;7.50;91.10;;;;;;5080503;28;20295;-53
2021/03/18 08:58:07;;;;;;;7.18;5.43;;;7.60;90.30;;;;;;5076018;28;20201;-53
2021/03/18 09:00:34;;;;;;;7.55;4.88;;;8.20;90.00;;;;;;5075857;28;20488;-52
2021/03/18 09:03:01;;;;;;;8.98;5.10;;;8.20;89.40;;;;;;5070647;28;20208;-53
2021/03/18 09:05:27;;;;;;;8.68;5.55;;;8.20;86.80;;;;;;5074746;28;20204;-55
2021/03/18 09:07:59;;;;;;;6.22;5.03;;;8.20;87.80;;;;;;5084971;28;20689;-54
2021/03/18 09:10:30;;;;;;;10.15;6.30;;;8.30;88.40;;;;;;5080108;28;20188;-54
2021/03/18 09:12:58;;;;;;;13.85;6.60;;;8.20;87.50;;;;;;5082900;28;20195;-52
2021/03/18 09:15:36;;;;;;;9.98;5.88;;;8.20;89.00;;;;;;5081778;28;20180;-54
2021/03/18 09:18:19;;;;;;;7.18;5.38;;;8.00;89.00;;;;;;5074248;28;20598;-53
2021/03/18 09:21:05;;;;;;;7.60;4.95;;;7.90;89.00;;;;;;5081339;28;20313;-51
2021/03/18 09:23:33;;;;;;;13.65;5.57;;;7.90;88.00;;;;;;5075719;28;20259;-53
2021/03/18 09:26:01;;;;;;;7.70;5.70;;;6.60;89.90;;;;;;5078149;28;20230;-53
2021/03/18 09:28:38;;;;;;;7.50;5.60;;;6.80;91.30;;;;;;5069563;28;20209;-53
2021/03/18 09:31:04;;;;;;;6.00;4.95;;;7.00;91.10;;;;;;5095931;28;20271;-53
2021/03/18 09:33:32;;;;;;;8.32;5.45;;;7.20;91.10;;;;;;5078076;28;20180;-54
2021/03/18 09:36:01;;;;;;;5.97;5.35;;;7.20;91.60;;;;;;5071853;28;20186;-54
2021/03/18 09:38:30;;;;;;;10.82;5.78;;;7.10;91.00;;;;;;5073865;28;20683;-53
2021/03/18 09:40:58;;;;;;;6.88;5.60;;;7.30;90.90;;;;;;5077710;28;20196;-51
2021/03/18 09:43:26;;;;;;;8.93;4.93;;;7.40;91.20;;;;;;5077783;28;20191;-52
2021/03/18 09:45:57;;;;;;;7.55;5.10;;;7.40;91.00;;;;;;5075773;28;20562;-51
2021/03/18 09:48:38;;;;;;;7.05;5.20;;;7.40;90.40;;;;;;5078236;28;20231;-51
2021/03/18 09:51:09;;;;;;;6.07;5.18;;;7.60;90.00;;;;;;5075665;28;20194;-54
2021/03/18 09:53:35;;;;;;;8.23;5.05;;;6.80;90.50;;;;;;5084152;28;20199;-56
2021/03/18 09:56:10;;;;;;;7.35;5.53;;;7.00;91.10;;;;;;5074717;28;20181;-55
2021/03/18 09:58:37;;;;;;;11.48;5.50;;;7.20;91.20;;;;;;5077899;28;20241;-53
2021/03/18 10:01:14;;;;;;;8.63;4.82;;;7.40;93.50;;;;;;5076882;28;20247;-52
2021/03/18 10:03:56;;;;;;;6.47;5.38;;;7.40;91.70;;;;;;5080464;28;20179;-51
2021/03/18 10:06:28;;;;;;;7.63;5.40;;;6.90;91.20;;;;;;5080135;28;20667;-51
2021/03/18 10:09:12;;;;;;;5.75;4.60;;;7.30;91.70;;;;;;5087204;28;20302;-51
2021/03/18 10:11:38;;;;;;;7.38;5.43;;;7.50;90.70;;;;;;5087211;28;20184;-53
2021/03/18 10:14:05;;;;;;;6.80;4.00;;;7.70;90.00;;;;;;5076973;28;20188;-53
2021/03/18 10:16:31;;;;;;;3.95;3.55;;;8.00;87.00;;;;;;5076326;28;20230;-54
2021/03/18 10:18:58;;;;;;;7.83;4.07;;;8.30;84.40;;;;;;5082492;28;20307;-54
2021/03/18 10:21:24;;;;;;;10.85;4.82;;;8.30;83.10;;;;;;5079213;28;20494;-52
2021/03/18 10:23:49;;;;;;;6.60;4.05;;;8.40;82.00;;;;;;5083683;28;20188;-53
2021/03/18 10:26:23;;;;;;;6.20;4.20;;;8.40;82.10;;;;;;5079413;28;20280;-56
2021/03/18 10:28:57;;;;;;;4.72;3.83;;;8.60;80.50;;;;;;5083972;28;20429;-52
2021/03/18 10:31:23;;;;;;;4.53;4.00;;;8.90;80.40;;;;;;5073330;28;20208;-53
2021/03/18 10:33:48;;;;;;;5.83;3.60;;;8.70;81.10;;;;;;5078591;28;20181;-55
2021/03/18 10:36:14;;;;;;;5.50;4.63;;;8.70;80.40;;;;;;5084303;28;20433;-55
2021/03/18 10:38:41;;;;;;;6.60;4.07;;;8.50;81.20;;;;;;5080318;28;20205;-55
2021/03/18 10:41:14;;;;;;;5.30;4.10;;;8.50;84.20;;;;;;5078351;28;20185;-54
2021/03/18 10:43:42;;;;;;;4.00;3.60;;;8.30;83.70;;;;;;5078724;28;20266;-53
2021/03/18 10:46:10;;;;;;;8.75;4.80;;;7.80;81.80;;;;;;5076884;28;20188;-54
2021/03/18 10:48:38;;;;;;;7.38;4.40;;;7.90;91.00;;;;;;5077433;28;20216;-52
2021/03/18 10:51:06;;;;;;;6.30;3.90;;;7.30;88.50;;;;;;5074918;28;20567;-53
2021/03/18 10:53:37;;;;;;;4.78;3.97;;;7.50;85.90;;;;;;5103029;28;20180;-53
2021/03/18 10:56:05;;;;;;;5.38;3.50;;;7.60;86.40;;;;;;5074538;28;20271;-54
2021/03/18 10:58:31;;;;;;;5.50;4.05;;;7.60;85.70;;;;;;5075424;28;20251;-51
2021/03/18 11:01:00;;;;;;;8.57;4.20;;;7.60;84.10;;;;;;5077764;28;20191;-52
2021/03/18 11:03:31;;;;;;;3.58;3.28;;;7.60;84.80;;;;;;5080301;28;20180;-53
2021/03/18 11:05:58;;;;;;;4.95;3.30;;;8.00;84.50;;;;;;5083927;28;20233;-55
2021/03/18 11:08:29;;;;;;;5.00;3.33;;;7.90;83.00;;;;;;5078836;28;20220;-53
2021/03/18 11:10:57;;;;;;;7.13;3.75;;;8.00;82.40;;;;;;5080587;28;20184;-53
2021/03/18 11:13:29;;;;;;;8.43;4.15;;;7.80;81.30;;;;;;5080191;28;20275;-53
2021/03/18 11:16:02;;;;;;;7.35;3.95;;;7.80;82.10;;;;;;5081832;28;20325;-53
2021/03/18 11:18:36;;;;;;;6.55;4.60;;;7.90;83.80;;;;;;5078042;28;20649;-54
2021/03/18 11:21:05;;;;;;;6.18;4.30;;;8.30;83.80;;;;;;5083282;28;20207;-50
2021/03/18 11:23:37;;;;;;;8.52;4.53;;;8.40;83.00;;;;;;5079238;28;20721;-50
2021/03/18 11:26:06;;;;;;;4.28;3.88;;;8.40;82.20;;;;;;5078676;28;20195;-53
2021/03/18 11:28:34;;;;;;;4.97;3.72;;;8.70;80.40;;;;;;5078701;28;20505;-54
2021/03/18 11:31:09;;;;;;;8.98;4.45;;;8.60;78.40;;;;;;5072891;28;20184;-53
2021/03/18 11:33:34;;;;;;;10.73;4.40;;;8.30;79.90;;;;;;5079490;28;20217;-53
2021/03/18 11:36:03;;;;;;;5.00;3.80;;;8.50;80.40;;;;;;5082472;28;20211;-57
2021/03/18 11:38:29;;;;;;;3.95;3.55;;;8.50;80.20;;;;;;5078965;28;20208;-57
2021/03/18 11:40:56;;;;;;;4.90;4.15;;;8.70;78.60;;;;;;5079983;28;20192;-57
2021/03/18 11:43:22;;;;;;;9.73;4.10;;;8.60;78.20;;;;;;5075103;28;20183;-54
2021/03/18 11:45:47;;;;;;;7.93;4.13;;;8.30;77.50;;;;;;5073030;28;20188;-55
2021/03/18 11:48:13;;;;;;;6.50;4.27;;;8.70;77.60;;;;;;5071575;28;20569;-54
2021/03/18 11:50:41;;;;;;;5.03;3.88;;;7.90;76.00;;;;;;5078002;28;20686;-55
2021/03/18 11:53:07;;;;;;;4.05;3.65;;;8.50;75.40;;;;;;5078894;28;20660;-54
2021/03/18 11:55:33;;;;;;;9.60;6.20;;;8.20;75.60;;;;;;5075782;28;20527;-54
2021/03/18 11:57:59;;;;;;;5.43;4.70;;;8.50;75.60;;;;;;5079285;28;20227;-55
2021/03/18 12:00:27;;;;;;;4.73;4.23;;;8.60;75.00;;;;;;5080823;28;20649;-54
2021/03/18 12:02:55;;;;;;;4.18;3.50;;;8.80;74.50;;;;;;5078521;28;20433;-55
2021/03/18 12:05:21;;;;;;;8.20;5.80;;;9.00;76.10;;;;;;5076311;28;20376;-55
2021/03/18 12:07:47;;;;;;;4.07;3.67;;;9.10;77.70;;;;;;5080335;28;20211;-55
2021/03/18 12:10:13;;;;;;;5.83;5.23;;;8.90;79.40;;;;;;5080103;28;20416;-52
2021/03/18 12:12:38;;;;;;;9.23;5.35;;;8.50;82.90;;;;;;5074512;28;20184;-53
2021/03/18 12:15:06;;;;;;;6.07;4.10;;;8.80;85.10;;;;;;5071441;28;20223;-53
2021/03/18 12:17:33;;;;;;;7.22;4.32;;;8.60;86.70;;;;;;5079455;28;20209;-53
2021/03/18 12:19:58;;;;;;;4.82;4.32;;;8.90;87.80;;;;;;5080701;28;20669;-54
2021/03/18 12:22:24;;;;;;;4.47;4.07;;;8.50;85.80;;;;;;5077468;28;20189;-51
2021/03/18 12:24:50;;;;;;;3.70;3.40;;;8.50;85.20;;;;;;5079180;28;20189;-51
2021/03/18 12:27:16;;;;;;;3.90;3.60;;;8.70;83.10;;;;;;5074509;28;20850;-53
2021/03/18 12:29:41;;;;;;;6.07;4.30;;;8.60;80.80;;;;;;5076147;28;20440;-53
2021/03/18 12:32:07;;;;;;;5.10;4.40;;;8.40;81.10;;;;;;5074053;28;20289;-52
2021/03/18 12:34:33;;;;;;;4.70;4.03;;;8.20;82.00;;;;;;5081889;28;20200;-52
2021/03/18 12:36:58;;;;;;;5.10;4.70;;;8.70;83.80;;;;;;5082513;28;20234;-53
2021/03/18 12:39:24;;;;;;;4.80;4.40;;;8.90;83.70;;;;;;5081411;28;20282;-53
2021/03/18 12:41:50;;;;;;;7.57;4.53;;;9.10;87.40;;;;;;5075289;28;20212;-53
2021/03/18 12:44:16;;;;;;;5.50;4.20;;;9.20;90.10;;;;;;5077397;28;20217;-51
2021/03/18 12:46:42;;;;;;;7.47;4.57;;;9.30;89.10;;;;;;5074300;28;20650;-54
2021/03/18 12:49:08;;;;;;;4.45;3.67;;;9.10;88.50;;;;;;5072578;28;20448;-55
2021/03/18 12:51:35;;;;;;;6.43;5.30;;;8.60;87.90;;;;;;5069574;28;20185;-51
2021/03/18 12:54:01;;;;;;;5.40;4.68;;;9.10;89.80;;;;;;5075178;28;20191;-53
2021/03/18 12:56:27;;;;;;;5.73;4.60;;;9.20;89.10;;;;;;5075873;28;20208;-50
2021/03/18 12:58:53;;;;;;;4.60;4.20;;;9.30;86.90;;;;;;5082535;28;20537;-53
2021/03/18 13:01:19;;;;;;;4.33;3.90;;;9.20;87.00;;;;;;5080848;28;20183;-51
2021/03/18 13:03:44;;;;;;;7.55;4.05;;;9.10;86.90;;;;;;5070501;28;20538;-53
2021/03/18 13:06:10;;;;;;;5.37;4.10;;;9.30;86.20;;;;;;5086037;28;20184;-52
2021/03/18 13:08:36;;;;;;;6.83;4.73;;;9.00;86.70;;;;;;5076977;28;20271;-52
2021/03/18 13:11:03;;;;;;;10.02;4.38;;;8.40;83.90;;;;;;5079487;28;20653;-52